Time;durP1;ratioP1;P1;durP2;ratioP2;P2;SDS_P1;SDS_P2;PMS_P1;PMS_P2;Temp;Humidity;BMP_temperature;BMP_pressure;BME280_temperature;BME280_humidity;BME280_pressure;Samples;Min_cycle;Max_cycle;Signal;HPM_P1;HPM_P2
2024/01/03 00:00:36;;;;;;;8.73;4.70;;;;;;;;;;5024713;28;20220;-66
2024/01/03 00:03:03;;;;;;;9.40;5.53;;;;;;;;;;5021076;28;20205;-66
2024/01/03 00:05:36;;;;;;;4.10;1.67;;;;;;;;;;5027384;28;20277;-67
2024/01/03 00:08:03;;;;;;;6.47;2.77;;;;;;;;;;5022707;28;20396;-67
2024/01/03 00:10:39;;;;;;;4.93;1.93;;;;;;;;;;5020558;28;20212;-66
2024/01/03 00:13:26;;;;;;;4.87;2.40;;;;;;;;;;5025842;28;20207;-67
2024/01/03 00:16:19;;;;;;;2.60;1.40;;;;;;;;;;5019736;28;20197;-66
2024/01/03 00:18:49;;;;;;;2.20;1.10;;;;;;;;;;5026669;28;20196;-66
2024/01/03 00:21:19;;;;;;;2.67;1.00;;;;;;;;;;5028144;28;20224;-66
2024/01/03 00:23:49;;;;;;;6.03;1.50;;;;;;;;;;5026397;28;20210;-66
2024/01/03 00:26:18;;;;;;;3.10;1.13;;;;;;;;;;5024134;28;20204;-66
2024/01/03 00:28:46;;;;;;;4.00;1.33;;;;;;;;;;5021124;28;20211;-66
2024/01/03 00:31:18;;;;;;;5.37;1.97;;;;;;;;;;5022510;28;20199;-67
2024/01/03 00:33:45;;;;;;;2.73;1.77;;;;;;;;;;5024689;28;20205;-66
2024/01/03 00:36:13;;;;;;;5.27;2.00;;;;;;;;;;5021786;28;20295;-66
2024/01/03 00:38:42;;;;;;;4.77;1.63;;;;;;;;;;5023526;28;20204;-66
2024/01/03 00:41:10;;;;;;;5.77;1.90;;;;;;;;;;5019437;28;20228;-67
2024/01/03 00:43:38;;;;;;;4.47;1.47;;;;;;;;;;5021825;28;20207;-67
2024/01/03 00:46:05;;;;;;;7.00;1.90;;;;;;;;;;5025280;28;20210;-67
2024/01/03 00:48:33;;;;;;;6.53;2.40;;;;;;;;;;5025621;28;20258;-66
2024/01/03 00:51:01;;;;;;;5.50;1.80;;;;;;;;;;5024547;28;20212;-66
2024/01/03 00:53:28;;;;;;;5.03;1.50;;;;;;;;;;5020570;28;20208;-67
2024/01/03 00:55:55;;;;;;;11.23;2.17;;;;;;;;;;5015617;28;20208;-66
2024/01/03 00:58:22;;;;;;;6.53;1.80;;;;;;;;;;5018298;28;20216;-65
2024/01/03 01:00:51;;;;;;;9.27;1.93;;;;;;;;;;5024629;28;20224;-66
2024/01/03 01:03:18;;;;;;;7.00;1.70;;;;;;;;;;5024406;28;20197;-66
2024/01/03 01:05:45;;;;;;;6.67;1.50;;;;;;;;;;5024625;28;20200;-66
2024/01/03 01:08:13;;;;;;;5.67;1.50;;;;;;;;;;5026130;28;20204;-66
2024/01/03 01:10:40;;;;;;;9.50;2.33;;;;;;;;;;5026766;28;20204;-66
2024/01/03 01:13:07;;;;;;;5.63;1.67;;;;;;;;;;5029422;28;20223;-66
2024/01/03 01:15:34;;;;;;;7.47;1.93;;;;;;;;;;5022925;28;20200;-66
2024/01/03 01:18:02;;;;;;;9.73;2.10;;;;;;;;;;5027341;28;20208;-66
2024/01/03 01:20:30;;;;;;;7.43;1.97;;;;;;;;;;5024297;28;20282;-65
2024/01/03 01:22:57;;;;;;;7.13;1.77;;;;;;;;;;5023257;28;20214;-66
2024/01/03 01:25:24;;;;;;;7.10;1.60;;;;;;;;;;5023812;28;20216;-67
2024/01/03 01:27:51;;;;;;;8.60;1.90;;;;;;;;;;5025376;28;20212;-66
2024/01/03 01:30:18;;;;;;;7.17;1.70;;;;;;;;;;5026068;28;20205;-66
2024/01/03 01:32:45;;;;;;;9.93;2.13;;;;;;;;;;5022984;28;20204;-67
2024/01/03 01:35:14;;;;;;;8.17;2.37;;;;;;;;;;5024364;28;20213;-67
2024/01/03 01:37:41;;;;;;;9.90;2.33;;;;;;;;;;5022810;28;20239;-66
2024/01/03 01:40:09;;;;;;;8.00;2.07;;;;;;;;;;5023784;28;20212;-66
2024/01/03 01:42:36;;;;;;;7.80;1.73;;;;;;;;;;5022838;28;20200;-66
2024/01/03 01:45:03;;;;;;;6.90;2.00;;;;;;;;;;5024376;28;20204;-65
2024/01/03 01:47:31;;;;;;;7.10;1.97;;;;;;;;;;5021259;28;20209;-66
2024/01/03 01:49:58;;;;;;;5.87;1.70;;;;;;;;;;5024752;28;20346;-66
2024/01/03 01:52:26;;;;;;;5.13;1.67;;;;;;;;;;5024676;28;20205;-66
2024/01/03 01:54:54;;;;;;;5.50;1.50;;;;;;;;;;5020559;28;20230;-66
2024/01/03 01:57:21;;;;;;;7.03;2.10;;;;;;;;;;5011896;28;20207;-65
2024/01/03 01:59:48;;;;;;;7.23;1.83;;;;;;;;;;5020661;28;20204;-67
2024/01/03 02:02:16;;;;;;;5.97;2.03;;;;;;;;;;5024810;28;20223;-66
2024/01/03 02:04:43;;;;;;;8.47;2.00;;;;;;;;;;5025166;28;20212;-66
2024/01/03 02:07:11;;;;;;;6.13;2.00;;;;;;;;;;5025475;28;20204;-67
2024/01/03 02:09:41;;;;;;;7.37;1.87;;;;;;;;;;5022750;28;20208;-66
2024/01/03 02:12:10;;;;;;;5.60;1.60;;;;;;;;;;5025505;28;20219;-66
2024/01/03 02:14:37;;;;;;;6.30;1.73;;;;;;;;;;5025046;28;20211;-66
2024/01/03 02:17:04;;;;;;;7.13;1.80;;;;;;;;;;5023323;28;20204;-66
2024/01/03 02:19:31;;;;;;;9.43;2.40;;;;;;;;;;5029848;28;20222;-65
2024/01/03 02:22:00;;;;;;;8.73;2.10;;;;;;;;;;5027171;28;20220;-67
2024/01/03 02:24:27;;;;;;;7.70;1.87;;;;;;;;;;5024875;28;20211;-66
2024/01/03 02:26:54;;;;;;;11.57;2.00;;;;;;;;;;5026179;28;20196;-65
2024/01/03 02:29:21;;;;;;;5.37;1.67;;;;;;;;;;5019459;28;20204;-66
2024/01/03 02:31:48;;;;;;;7.43;2.00;;;;;;;;;;5024427;28;20202;-66
2024/01/03 02:34:15;;;;;;;8.53;2.33;;;;;;;;;;5023041;28;20243;-66
2024/01/03 02:36:42;;;;;;;8.30;2.00;;;;;;;;;;5024672;28;20232;-66
2024/01/03 02:39:11;;;;;;;6.50;1.97;;;;;;;;;;5023566;28;20204;-66
2024/01/03 02:41:38;;;;;;;7.93;2.07;;;;;;;;;;5021979;28;20228;-66
2024/01/03 02:44:05;;;;;;;6.57;1.83;;;;;;;;;;5027797;28;20212;-66
2024/01/03 02:46:32;;;;;;;8.07;2.00;;;;;;;;;;5019543;28;20211;-68
2024/01/03 02:49:00;;;;;;;7.80;2.10;;;;;;;;;;5021132;28;20212;-66
2024/01/03 02:51:27;;;;;;;8.83;2.10;;;;;;;;;;5021277;28;20206;-67
2024/01/03 02:53:54;;;;;;;10.93;2.50;;;;;;;;;;5023880;28;20204;-67
2024/01/03 02:56:22;;;;;;;7.47;2.30;;;;;;;;;;5021359;28;20211;-67
2024/01/03 02:58:49;;;;;;;10.60;2.40;;;;;;;;;;5018489;28;20201;-67
2024/01/03 03:01:16;;;;;;;8.53;1.80;;;;;;;;;;5022205;28;20303;-66
2024/01/03 03:03:44;;;;;;;8.70;2.47;;;;;;;;;;5020663;28;20208;-66
2024/01/03 03:06:11;;;;;;;10.80;2.77;;;;;;;;;;5018095;28;20211;-66
2024/01/03 03:08:38;;;;;;;12.80;2.50;;;;;;;;;;5021252;28;20207;-67
2024/01/03 03:11:05;;;;;;;11.23;2.57;;;;;;;;;;5022187;28;20218;-66
2024/01/03 03:13:33;;;;;;;10.87;2.67;;;;;;;;;;5027936;28;20208;-66
2024/01/03 03:16:01;;;;;;;8.43;2.33;;;;;;;;;;5017790;28;20207;-66
2024/01/03 03:18:28;;;;;;;12.60;2.43;;;;;;;;;;5023324;28;20216;-66
2024/01/03 03:20:55;;;;;;;10.30;2.67;;;;;;;;;;5022969;28;20441;-66
2024/01/03 03:23:22;;;;;;;8.40;2.60;;;;;;;;;;5019770;28;20367;-67
2024/01/03 03:25:49;;;;;;;10.30;2.43;;;;;;;;;;5021603;28;20204;-66
2024/01/03 03:28:16;;;;;;;14.13;2.70;;;;;;;;;;5023218;28;20208;-66
2024/01/03 03:30:45;;;;;;;8.47;2.30;;;;;;;;;;5020222;28;20211;-66
2024/01/03 03:33:12;;;;;;;6.57;2.07;;;;;;;;;;5019556;28;20204;-66
2024/01/03 03:35:39;;;;;;;9.77;2.40;;;;;;;;;;5019419;28;20200;-66
2024/01/03 03:38:06;;;;;;;11.30;2.47;;;;;;;;;;5022979;28;20267;-66
2024/01/03 03:40:33;;;;;;;11.50;2.90;;;;;;;;;;5019110;28;20226;-66
2024/01/03 03:43:00;;;;;;;14.17;3.00;;;;;;;;;;5020619;28;20220;-66
2024/01/03 03:45:27;;;;;;;14.13;2.70;;;;;;;;;;5021094;28;20215;-67
2024/01/03 03:47:56;;;;;;;14.47;2.67;;;;;;;;;;5020810;28;20200;-66
2024/01/03 03:50:23;;;;;;;9.23;2.30;;;;;;;;;;5024506;28;20219;-66
2024/01/03 03:52:50;;;;;;;9.50;2.40;;;;;;;;;;5022502;28;20201;-66
2024/01/03 03:55:17;;;;;;;13.93;3.10;;;;;;;;;;5023918;28;20208;-66
2024/01/03 03:57:44;;;;;;;11.20;2.57;;;;;;;;;;5018004;28;20214;-65
2024/01/03 04:00:12;;;;;;;13.23;2.53;;;;;;;;;;5026067;28;20267;-66
2024/01/03 04:02:39;;;;;;;12.87;3.10;;;;;;;;;;5021846;28;20306;-66
2024/01/03 04:05:08;;;;;;;10.80;2.33;;;;;;;;;;5019136;28;20201;-66
2024/01/03 04:07:35;;;;;;;10.83;2.90;;;;;;;;;;5023207;28;20200;-66
2024/01/03 04:10:02;;;;;;;8.30;2.20;;;;;;;;;;5024729;28;20200;-66
2024/01/03 04:12:29;;;;;;;13.00;2.53;;;;;;;;;;5023604;28;20208;-67
2024/01/03 04:14:56;;;;;;;9.57;2.50;;;;;;;;;;5022081;28;20215;-67
2024/01/03 04:17:23;;;;;;;12.27;3.00;;;;;;;;;;5025099;28;20197;-67
2024/01/03 04:19:50;;;;;;;14.43;2.93;;;;;;;;;;5018491;28;20295;-66
2024/01/03 04:22:19;;;;;;;10.27;2.60;;;;;;;;;;5023150;28;20231;-66
2024/01/03 04:24:46;;;;;;;10.23;2.67;;;;;;;;;;5027671;28;20204;-67
2024/01/03 04:27:13;;;;;;;7.60;2.50;;;;;;;;;;5024383;28;20209;-65
2024/01/03 04:29:40;;;;;;;8.37;2.40;;;;;;;;;;5024166;28;20213;-66
2024/01/03 04:32:10;;;;;;;10.50;2.20;;;;;;;;;;5027151;28;20215;-67
2024/01/03 04:34:40;;;;;;;11.17;2.63;;;;;;;;;;5022928;28;20220;-67
2024/01/03 04:37:07;;;;;;;10.83;2.47;;;;;;;;;;5024702;28;20271;-66
2024/01/03 04:39:35;;;;;;;11.73;2.57;;;;;;;;;;5021749;28;20207;-66
2024/01/03 04:42:03;;;;;;;13.57;3.10;;;;;;;;;;5023739;28;20224;-66
2024/01/03 04:44:30;;;;;;;9.53;2.20;;;;;;;;;;5024701;28;20208;-67
2024/01/03 04:46:57;;;;;;;13.40;2.60;;;;;;;;;;5020713;28;20203;-66
2024/01/03 04:49:24;;;;;;;12.43;2.80;;;;;;;;;;5019481;28;20212;-66
2024/01/03 04:51:51;;;;;;;7.93;2.27;;;;;;;;;;5019078;28;20211;-66
2024/01/03 04:54:18;;;;;;;13.83;2.60;;;;;;;;;;5027987;28;20212;-66
2024/01/03 04:56:47;;;;;;;13.27;2.27;;;;;;;;;;5017957;28;20213;-66
2024/01/03 04:59:14;;;;;;;11.03;2.57;;;;;;;;;;5022542;28;20227;-67
2024/01/03 05:01:42;;;;;;;11.70;2.50;;;;;;;;;;5021474;28;20220;-66
2024/01/03 05:04:09;;;;;;;14.93;3.00;;;;;;;;;;5026076;28;20216;-66
2024/01/03 05:06:37;;;;;;;13.57;2.57;;;;;;;;;;5022224;28;20205;-66
2024/01/03 05:09:04;;;;;;;10.83;2.57;;;;;;;;;;5022496;28;20204;-66
2024/01/03 05:11:31;;;;;;;9.13;2.60;;;;;;;;;;5024276;28;20200;-66
2024/01/03 05:13:59;;;;;;;14.47;2.90;;;;;;;;;;5023981;28;20204;-66
2024/01/03 05:16:27;;;;;;;11.87;2.57;;;;;;;;;;5023847;28;20200;-67
2024/01/03 05:18:54;;;;;;;8.57;2.00;;;;;;;;;;5023237;28;20204;-66
2024/01/03 05:21:21;;;;;;;12.17;2.60;;;;;;;;;;5024952;28;20209;-67
2024/01/03 05:23:48;;;;;;;9.03;2.03;;;;;;;;;;5027369;28;20210;-66
2024/01/03 05:26:15;;;;;;;12.70;2.43;;;;;;;;;;5028425;28;20601;-67
2024/01/03 05:28:42;;;;;;;10.30;2.47;;;;;;;;;;5022648;28;20211;-66
2024/01/03 05:31:11;;;;;;;10.53;2.43;;;;;;;;;;5024141;28;20204;-66
2024/01/03 05:33:38;;;;;;;11.87;2.40;;;;;;;;;;5020908;28;20204;-66
2024/01/03 05:36:05;;;;;;;12.57;2.30;;;;;;;;;;5024654;28;20231;-66
2024/01/03 05:38:36;;;;;;;11.93;2.60;;;;;;;;;;5027579;28;20311;-67
2024/01/03 05:41:03;;;;;;;9.70;2.50;;;;;;;;;;5027690;28;20208;-66
2024/01/03 05:43:30;;;;;;;9.90;2.33;;;;;;;;;;5026775;28;20218;-66
2024/01/03 05:45:57;;;;;;;10.33;2.43;;;;;;;;;;5026297;28;20200;-66
2024/01/03 05:48:25;;;;;;;9.13;2.37;;;;;;;;;;5020941;28;20208;-67
2024/01/03 05:50:53;;;;;;;12.03;2.83;;;;;;;;;;5022781;28;20192;-66
2024/01/03 05:53:20;;;;;;;9.03;2.30;;;;;;;;;;5026904;28;20207;-67
2024/01/03 05:55:47;;;;;;;11.10;2.30;;;;;;;;;;5015383;28;20215;-66
2024/01/03 05:58:14;;;;;;;7.47;2.27;;;;;;;;;;5016623;28;20204;-66
2024/01/03 06:00:41;;;;;;;6.93;2.20;;;;;;;;;;5020766;28;20196;-66
2024/01/03 06:03:08;;;;;;;9.83;2.10;;;;;;;;;;5023584;28;20262;-66
2024/01/03 06:05:37;;;;;;;14.10;2.60;;;;;;;;;;5025618;28;20208;-66
2024/01/03 06:08:04;;;;;;;8.67;2.20;;;;;;;;;;5020307;28;20211;-66
2024/01/03 06:10:31;;;;;;;11.03;2.27;;;;;;;;;;5025865;28;20208;-66
2024/01/03 06:12:58;;;;;;;8.93;2.00;;;;;;;;;;5023986;28;20216;-66
2024/01/03 06:15:25;;;;;;;11.73;2.23;;;;;;;;;;5022035;28;20204;-66
2024/01/03 06:17:53;;;;;;;10.43;2.23;;;;;;;;;;5027156;28;20210;-67
2024/01/03 06:20:20;;;;;;;8.53;2.00;;;;;;;;;;5024232;28;20207;-66
2024/01/03 06:22:48;;;;;;;13.10;2.50;;;;;;;;;;5024048;28;20216;-67
2024/01/03 06:25:15;;;;;;;10.67;2.20;;;;;;;;;;5024347;28;20200;-66
2024/01/03 06:27:43;;;;;;;8.43;2.10;;;;;;;;;;5022837;28;20208;-67
2024/01/03 06:30:10;;;;;;;14.17;2.37;;;;;;;;;;5025767;28;20196;-66
2024/01/03 06:32:37;;;;;;;12.43;2.57;;;;;;;;;;5022061;28;20196;-66
2024/01/03 06:35:04;;;;;;;7.77;2.20;;;;;;;;;;5023373;28;20208;-67
2024/01/03 06:37:32;;;;;;;9.20;2.30;;;;;;;;;;5019335;28;20404;-67
2024/01/03 06:40:00;;;;;;;9.23;1.83;;;;;;;;;;5024350;28;20226;-66
2024/01/03 06:42:27;;;;;;;9.60;2.33;;;;;;;;;;5021960;28;20217;-66
2024/01/03 06:44:54;;;;;;;9.40;2.00;;;;;;;;;;5023600;28;20204;-65
2024/01/03 06:47:21;;;;;;;10.23;2.17;;;;;;;;;;5019841;28;20196;-67
2024/01/03 06:49:48;;;;;;;7.03;1.67;;;;;;;;;;5018736;28;20215;-66
2024/01/03 06:52:16;;;;;;;9.33;2.07;;;;;;;;;;5022194;28;20204;-66
2024/01/03 06:54:44;;;;;;;8.83;1.63;;;;;;;;;;5020697;28;20215;-67
2024/01/03 06:57:12;;;;;;;7.03;1.93;;;;;;;;;;5024533;28;20208;-67
2024/01/03 06:59:40;;;;;;;7.87;1.70;;;;;;;;;;5021614;28;20208;-66
2024/01/03 07:02:07;;;;;;;6.97;1.67;;;;;;;;;;5019525;28;20232;-66
2024/01/03 07:04:34;;;;;;;5.70;1.70;;;;;;;;;;5023380;28;20218;-66
2024/01/03 07:07:02;;;;;;;5.63;1.80;;;;;;;;;;5020278;28;20205;-66
2024/01/03 07:09:29;;;;;;;9.13;1.77;;;;;;;;;;5025720;28;20204;-66
2024/01/03 07:11:56;;;;;;;6.10;1.60;;;;;;;;;;5021976;28;20215;-66
2024/01/03 07:14:24;;;;;;;5.97;1.63;;;;;;;;;;5015565;28;20206;-66
2024/01/03 07:16:51;;;;;;;5.77;1.90;;;;;;;;;;5018263;28;20208;-67
2024/01/03 07:19:19;;;;;;;6.90;2.27;;;;;;;;;;5019570;28;20215;-66
2024/01/03 07:21:46;;;;;;;7.53;1.60;;;;;;;;;;5020648;28;20211;-66
2024/01/03 07:24:13;;;;;;;5.33;1.77;;;;;;;;;;5017798;28;20208;-66
2024/01/03 07:26:40;;;;;;;6.10;2.30;;;;;;;;;;5018461;28;20200;-67
2024/01/03 07:29:07;;;;;;;6.43;1.77;;;;;;;;;;5020561;28;20205;-66
2024/01/03 07:31:36;;;;;;;6.23;1.80;;;;;;;;;;5021717;28;20207;-66
2024/01/03 07:34:03;;;;;;;6.60;1.93;;;;;;;;;;5023787;28;20211;-67
2024/01/03 07:36:31;;;;;;;4.93;1.60;;;;;;;;;;5021293;28;20208;-66
2024/01/03 07:38:58;;;;;;;4.57;1.73;;;;;;;;;;5011229;28;20216;-66
2024/01/03 07:41:26;;;;;;;6.40;1.73;;;;;;;;;;5020054;28;21456;-66
2024/01/03 07:43:53;;;;;;;7.13;2.00;;;;;;;;;;5020415;28;20224;-66
2024/01/03 07:46:20;;;;;;;5.90;1.70;;;;;;;;;;5021764;28;20233;-66
2024/01/03 07:48:48;;;;;;;5.80;1.70;;;;;;;;;;5028151;28;20291;-66
2024/01/03 07:51:19;;;;;;;4.67;1.67;;;;;;;;;;5019914;28;20210;-66
2024/01/03 07:53:46;;;;;;;7.33;1.90;;;;;;;;;;5030364;28;20212;-66
2024/01/03 07:56:13;;;;;;;5.63;1.67;;;;;;;;;;5029793;28;20206;-66
2024/01/03 07:58:40;;;;;;;4.53;1.60;;;;;;;;;;5026180;28;20208;-66
2024/01/03 08:01:07;;;;;;;5.57;1.67;;;;;;;;;;5023858;28;20207;-66
2024/01/03 08:03:34;;;;;;;5.67;1.63;;;;;;;;;;5020972;28;20226;-63
2024/01/03 08:06:03;;;;;;;7.87;2.20;;;;;;;;;;5023740;28;20212;-61
2024/01/03 08:08:30;;;;;;;6.80;1.50;;;;;;;;;;5023039;28;20211;-62
2024/01/03 08:10:57;;;;;;;5.73;1.57;;;;;;;;;;5028414;28;20211;-63
2024/01/03 08:13:24;;;;;;;5.37;1.63;;;;;;;;;;5027371;28;20207;-61
2024/01/03 08:15:51;;;;;;;7.73;1.73;;;;;;;;;;5026200;28;20210;-62
2024/01/03 08:18:18;;;;;;;6.67;1.70;;;;;;;;;;5024324;28;20208;-63
2024/01/03 08:20:45;;;;;;;4.90;1.43;;;;;;;;;;5021440;28;20210;-62
2024/01/03 08:23:14;;;;;;;6.33;1.93;;;;;;;;;;5024811;28;20200;-62
2024/01/03 08:25:41;;;;;;;5.63;1.87;;;;;;;;;;5023211;28;20200;-62
2024/01/03 08:28:08;;;;;;;6.00;2.30;;;;;;;;;;5026839;28;20203;-62
2024/01/03 08:30:35;;;;;;;6.83;1.63;;;;;;;;;;5024070;28;20247;-62
2024/01/03 08:33:02;;;;;;;4.67;1.63;;;;;;;;;;5024140;28;20205;-62
2024/01/03 08:35:29;;;;;;;5.33;1.80;;;;;;;;;;5025485;28;20204;-61
2024/01/03 08:37:56;;;;;;;5.67;1.77;;;;;;;;;;5022939;28;20332;-61
2024/01/03 08:40:26;;;;;;;6.50;1.90;;;;;;;;;;5024112;28;20258;-61
2024/01/03 08:42:53;;;;;;;6.73;1.70;;;;;;;;;;5022734;28;20316;-62
2024/01/03 08:45:20;;;;;;;7.13;1.80;;;;;;;;;;5021378;28;20204;-61
2024/01/03 08:47:47;;;;;;;3.83;1.40;;;;;;;;;;5021895;28;20251;-64
2024/01/03 08:50:14;;;;;;;4.60;1.60;;;;;;;;;;5021867;28;20217;-61
2024/01/03 08:52:42;;;;;;;8.27;2.00;;;;;;;;;;5026816;28;20212;-60
2024/01/03 08:55:09;;;;;;;6.00;1.90;;;;;;;;;;5017203;28;20219;-61
2024/01/03 08:57:37;;;;;;;5.47;1.80;;;;;;;;;;5028101;28;20296;-60
2024/01/03 09:00:05;;;;;;;5.77;1.90;;;;;;;;;;5023220;28;20328;-62
2024/01/03 09:02:32;;;;;;;5.97;1.70;;;;;;;;;;5025358;28;20208;-61
2024/01/03 09:04:59;;;;;;;10.00;1.83;;;;;;;;;;5022359;28;20221;-62
2024/01/03 09:07:26;;;;;;;5.80;1.80;;;;;;;;;;5021074;28;20223;-61
2024/01/03 09:09:53;;;;;;;6.13;1.80;;;;;;;;;;5024918;28;20215;-61
2024/01/03 09:12:22;;;;;;;6.73;1.70;;;;;;;;;;5025990;28;20212;-62
2024/01/03 09:14:50;;;;;;;6.80;2.07;;;;;;;;;;5022131;28;20203;-66
2024/01/03 09:17:17;;;;;;;5.40;1.97;;;;;;;;;;5022139;28;20208;-65
2024/01/03 09:19:45;;;;;;;5.90;1.80;;;;;;;;;;5022596;28;20283;-65
2024/01/03 09:22:12;;;;;;;9.43;2.13;;;;;;;;;;5025367;28;20682;-65
2024/01/03 09:24:39;;;;;;;7.33;1.83;;;;;;;;;;5025239;28;20215;-64
2024/01/03 09:27:06;;;;;;;7.03;2.17;;;;;;;;;;5017737;28;20457;-66
2024/01/03 09:29:33;;;;;;;7.47;2.00;;;;;;;;;;5018796;28;20216;-66
2024/01/03 09:32:02;;;;;;;7.20;2.13;;;;;;;;;;5023590;28;20200;-66
2024/01/03 09:34:29;;;;;;;8.13;1.77;;;;;;;;;;5017917;28;20210;-65
2024/01/03 09:36:56;;;;;;;5.93;2.00;;;;;;;;;;5019740;28;20232;-66
2024/01/03 09:39:23;;;;;;;6.10;1.70;;;;;;;;;;5016764;28;20429;-66
2024/01/03 09:41:51;;;;;;;7.63;2.03;;;;;;;;;;5018188;28;20208;-66
2024/01/03 09:44:18;;;;;;;8.40;1.80;;;;;;;;;;5025615;28;20224;-65
2024/01/03 09:46:48;;;;;;;7.27;1.90;;;;;;;;;;5023983;28;20203;-65
2024/01/03 09:49:18;;;;;;;9.17;1.93;;;;;;;;;;5023424;28;20232;-66
2024/01/03 09:51:47;;;;;;;7.87;2.10;;;;;;;;;;5023932;28;20200;-66
2024/01/03 09:54:14;;;;;;;6.70;2.20;;;;;;;;;;5026936;28;20201;-67
2024/01/03 09:56:42;;;;;;;8.20;2.00;;;;;;;;;;5024074;28;20207;-65
2024/01/03 09:59:09;;;;;;;7.43;1.90;;;;;;;;;;5024469;28;20218;-66
2024/01/03 10:01:37;;;;;;;7.23;2.00;;;;;;;;;;5029291;28;20204;-66
2024/01/03 10:04:06;;;;;;;7.23;2.13;;;;;;;;;;5026013;28;20224;-66
2024/01/03 10:06:50;;;;;;;6.53;2.30;;;;;;;;;;5026308;28;20205;-66
2024/01/03 10:09:18;;;;;;;4.80;1.87;;;;;;;;;;5024700;28;20200;-66
2024/01/03 10:11:45;;;;;;;12.73;2.23;;;;;;;;;;5024699;28;20215;-65
2024/01/03 10:14:15;;;;;;;7.63;2.17;;;;;;;;;;5025004;28;20200;-67
2024/01/03 10:16:44;;;;;;;6.13;2.00;;;;;;;;;;5024886;28;20235;-66
2024/01/03 10:19:12;;;;;;;6.20;2.00;;;;;;;;;;5023297;28;20199;-66
2024/01/03 10:21:47;;;;;;;10.50;2.10;;;;;;;;;;5026572;28;20211;-66
2024/01/03 10:24:14;;;;;;;8.80;2.20;;;;;;;;;;5025937;28;20222;-61
2024/01/03 10:26:41;;;;;;;5.83;2.00;;;;;;;;;;5026316;28;20208;-62
2024/01/03 10:29:09;;;;;;;12.03;2.20;;;;;;;;;;5026214;28;20200;-61
2024/01/03 10:31:36;;;;;;;10.07;1.87;;;;;;;;;;5024443;28;20208;-61
2024/01/03 10:34:04;;;;;;;10.73;2.60;;;;;;;;;;5027068;28;20195;-61
2024/01/03 10:36:33;;;;;;;8.37;1.97;;;;;;;;;;5023862;28;20201;-61
2024/01/03 10:39:02;;;;;;;7.17;1.80;;;;;;;;;;5024531;28;20208;-62
2024/01/03 10:41:29;;;;;;;9.43;2.00;;;;;;;;;;5024181;28;20300;-62
2024/01/03 10:43:57;;;;;;;8.50;2.03;;;;;;;;;;5020732;28;20222;-62
2024/01/03 10:46:25;;;;;;;4.23;1.67;;;;;;;;;;5023807;28;20201;-62
2024/01/03 10:48:52;;;;;;;10.40;5.27;;;;;;;;;;5020194;28;20200;-62
2024/01/03 10:51:23;;;;;;;7.57;3.57;;;;;;;;;;5019155;28;20204;-63
2024/01/03 10:53:52;;;;;;;10.13;3.50;;;;;;;;;;5020968;28;20192;-62
2024/01/03 10:56:21;;;;;;;9.30;2.33;;;;;;;;;;5023611;28;20212;-62
2024/01/03 10:58:49;;;;;;;8.77;2.03;;;;;;;;;;5024167;28;20216;-63
2024/01/03 11:01:17;;;;;;;8.50;2.17;;;;;;;;;;5021572;28;20197;-63
2024/01/03 11:03:46;;;;;;;8.27;2.63;;;;;;;;;;5025399;28;20224;-63
2024/01/03 11:06:18;;;;;;;9.27;2.10;;;;;;;;;;5017324;28;20200;-61
2024/01/03 11:08:48;;;;;;;10.40;2.40;;;;;;;;;;5022903;28;20200;-62
2024/01/03 11:11:28;;;;;;;7.93;2.67;;;;;;;;;;5018156;28;20204;-63
2024/01/03 11:13:57;;;;;;;11.37;2.77;;;;;;;;;;5023680;28;20257;-62
2024/01/03 11:16:35;;;;;;;7.97;2.30;;;;;;;;;;5020857;28;20208;-63
2024/01/03 11:19:02;;;;;;;7.70;2.20;;;;;;;;;;5013566;28;20203;-62
2024/01/03 11:21:39;;;;;;;9.13;2.40;;;;;;;;;;5022879;28;20216;-62
2024/01/03 11:24:35;;;;;;;6.80;1.93;;;;;;;;;;5022273;28;20224;-63
2024/01/03 11:27:04;;;;;;;11.90;1.90;;;;;;;;;;5023727;28;20210;-63
2024/01/03 11:29:44;;;;;;;10.53;2.27;;;;;;;;;;5023564;28;20208;-62
2024/01/03 11:32:12;;;;;;;9.27;2.30;;;;;;;;;;5025090;28;20235;-62
2024/01/03 11:34:39;;;;;;;6.53;2.13;;;;;;;;;;5021907;28;20205;-66
2024/01/03 11:37:07;;;;;;;8.80;2.13;;;;;;;;;;5027746;28;20239;-66
2024/01/03 11:39:36;;;;;;;6.70;2.10;;;;;;;;;;5023181;28;20201;-66
2024/01/03 11:42:05;;;;;;;7.67;2.20;;;;;;;;;;5029580;28;20200;-67
2024/01/03 11:44:32;;;;;;;9.20;2.50;;;;;;;;;;5024828;28;20250;-66
2024/01/03 11:46:59;;;;;;;8.90;2.43;;;;;;;;;;5021226;28;20215;-67
2024/01/03 11:49:27;;;;;;;11.13;2.10;;;;;;;;;;5022528;28;20200;-67
2024/01/03 11:51:54;;;;;;;12.27;2.70;;;;;;;;;;5021390;28;20295;-66
2024/01/03 11:54:21;;;;;;;11.43;2.90;;;;;;;;;;5027279;28;20210;-66
2024/01/03 11:56:48;;;;;;;10.27;3.20;;;;;;;;;;5027092;28;20299;-67
2024/01/03 11:59:21;;;;;;;10.07;2.73;;;;;;;;;;5025192;28;20204;-67
2024/01/03 12:01:57;;;;;;;12.33;3.00;;;;;;;;;;5020796;28;20201;-66
2024/01/03 12:04:25;;;;;;;15.63;3.00;;;;;;;;;;5023226;28;20215;-66
2024/01/03 12:06:58;;;;;;;8.97;3.00;;;;;;;;;;5026044;28;20214;-66
2024/01/03 12:09:31;;;;;;;11.23;3.07;;;;;;;;;;5022815;28;20209;-67
2024/01/03 12:11:58;;;;;;;10.67;2.87;;;;;;;;;;5024713;28;20236;-66
2024/01/03 12:14:29;;;;;;;10.73;2.60;;;;;;;;;;5025433;28;20196;-66
2024/01/03 12:16:56;;;;;;;11.20;3.00;;;;;;;;;;5026515;28;20208;-66
2024/01/03 12:19:24;;;;;;;10.30;2.53;;;;;;;;;;5025553;28;20211;-66
2024/01/03 12:21:54;;;;;;;11.47;2.67;;;;;;;;;;5030428;28;20214;-66
2024/01/03 12:24:22;;;;;;;9.20;2.47;;;;;;;;;;5026333;28;20250;-67
2024/01/03 12:26:49;;;;;;;10.63;2.53;;;;;;;;;;5023872;28;20200;-66
2024/01/03 12:29:16;;;;;;;10.57;2.70;;;;;;;;;;5026151;28;20201;-67
2024/01/03 12:31:45;;;;;;;9.80;2.17;;;;;;;;;;5026357;28;20204;-68
2024/01/03 12:34:12;;;;;;;9.27;2.40;;;;;;;;;;5026359;28;20197;-66
2024/01/03 12:36:39;;;;;;;6.33;2.20;;;;;;;;;;5025839;28;20236;-66
2024/01/03 12:39:06;;;;;;;9.10;2.27;;;;;;;;;;5026604;28;20201;-66
2024/01/03 12:41:33;;;;;;;8.20;2.17;;;;;;;;;;5025537;28;20207;-66
2024/01/03 12:44:01;;;;;;;5.33;1.87;;;;;;;;;;5024139;28;20204;-67
2024/01/03 12:46:28;;;;;;;6.83;2.20;;;;;;;;;;5026222;28;20201;-67
2024/01/03 12:48:56;;;;;;;7.13;1.80;;;;;;;;;;5019829;28;20226;-67
2024/01/03 12:51:23;;;;;;;5.93;1.80;;;;;;;;;;5025761;28;20200;-67
2024/01/03 12:53:51;;;;;;;6.43;2.10;;;;;;;;;;5022685;28;20207;-67
2024/01/03 12:56:18;;;;;;;4.60;1.90;;;;;;;;;;5023373;28;20210;-67
2024/01/03 12:58:45;;;;;;;5.60;1.67;;;;;;;;;;5022106;28;20204;-66
2024/01/03 13:01:15;;;;;;;7.27;2.63;;;;;;;;;;5024300;28;20200;-66
2024/01/03 13:03:42;;;;;;;5.90;2.07;;;;;;;;;;5024278;28;20205;-67
2024/01/03 13:06:11;;;;;;;5.80;1.90;;;;;;;;;;5023932;28;20234;-66
2024/01/03 13:08:38;;;;;;;5.00;2.07;;;;;;;;;;5024640;28;20490;-66
2024/01/03 13:11:05;;;;;;;8.33;2.17;;;;;;;;;;5021104;28;20265;-66
2024/01/03 13:13:32;;;;;;;6.43;2.47;;;;;;;;;;5022619;28;20964;-66
2024/01/03 13:16:00;;;;;;;7.43;2.03;;;;;;;;;;5020215;28;20206;-66
2024/01/03 13:18:27;;;;;;;8.40;2.10;;;;;;;;;;5024833;28;20289;-67
2024/01/03 13:20:54;;;;;;;6.00;2.30;;;;;;;;;;5019300;28;20303;-66
2024/01/03 13:23:22;;;;;;;9.73;2.23;;;;;;;;;;5025083;28;20208;-68
2024/01/03 13:25:50;;;;;;;8.70;2.53;;;;;;;;;;5019483;28;20243;-67
2024/01/03 13:28:17;;;;;;;9.67;2.20;;;;;;;;;;5022407;28;20204;-67
2024/01/03 13:30:44;;;;;;;7.20;2.37;;;;;;;;;;5020175;28;20197;-66
2024/01/03 13:33:11;;;;;;;6.17;1.83;;;;;;;;;;5023096;28;20208;-67
2024/01/03 13:35:38;;;;;;;7.63;2.00;;;;;;;;;;5022403;28;20211;-67
2024/01/03 13:38:05;;;;;;;6.97;1.90;;;;;;;;;;5023915;28;20238;-68
2024/01/03 13:40:35;;;;;;;6.30;1.93;;;;;;;;;;5018722;28;20214;-65
2024/01/03 13:43:02;;;;;;;8.50;2.17;;;;;;;;;;5018466;28;20272;-66
2024/01/03 13:45:29;;;;;;;7.40;3.20;;;;;;;;;;5022670;28;20228;-66
2024/01/03 13:47:56;;;;;;;7.53;2.00;;;;;;;;;;5022889;28;20346;-66
2024/01/03 13:50:23;;;;;;;7.37;2.20;;;;;;;;;;5012546;28;20212;-66
2024/01/03 13:52:50;;;;;;;6.60;1.80;;;;;;;;;;5008690;28;20295;-67
2024/01/03 13:55:18;;;;;;;11.43;2.47;;;;;;;;;;5006958;28;20204;-65
2024/01/03 13:57:46;;;;;;;9.83;2.17;;;;;;;;;;5008472;28;20209;-66
2024/01/03 14:00:14;;;;;;;9.97;2.07;;;;;;;;;;5005497;28;20215;-65
2024/01/03 14:02:42;;;;;;;7.33;1.87;;;;;;;;;;5008137;28;20214;-65
2024/01/03 14:05:10;;;;;;;6.87;1.80;;;;;;;;;;5008318;28;20605;-66
2024/01/03 14:07:37;;;;;;;5.73;1.50;;;;;;;;;;5008465;28;20196;-66
2024/01/03 14:10:07;;;;;;;5.37;1.90;;;;;;;;;;5007524;28;20204;-65
2024/01/03 14:12:34;;;;;;;7.70;1.97;;;;;;;;;;5018530;28;20757;-65
2024/01/03 14:15:02;;;;;;;6.33;1.90;;;;;;;;;;5022614;28;20200;-66
2024/01/03 14:17:30;;;;;;;5.30;1.67;;;;;;;;;;5016622;28;20213;-66
2024/01/03 14:19:57;;;;;;;5.70;1.57;;;;;;;;;;5021222;28;20204;-67
2024/01/03 14:22:24;;;;;;;4.40;1.27;;;;;;;;;;5023614;28;20193;-66
2024/01/03 14:24:53;;;;;;;4.80;1.40;;;;;;;;;;5020690;28;20239;-66
2024/01/03 14:27:20;;;;;;;8.80;2.20;;;;;;;;;;5015929;28;20236;-66
2024/01/03 14:29:47;;;;;;;7.43;1.73;;;;;;;;;;5019689;28;20251;-66
2024/01/03 14:32:16;;;;;;;7.67;1.90;;;;;;;;;;5024423;28;20200;-66
2024/01/03 14:34:43;;;;;;;5.70;1.70;;;;;;;;;;5022481;28;20197;-66
2024/01/03 14:37:11;;;;;;;6.90;2.00;;;;;;;;;;5021901;28;20239;-66
2024/01/03 14:39:41;;;;;;;6.17;2.10;;;;;;;;;;5020594;28;20204;-67
2024/01/03 14:42:10;;;;;;;6.00;1.90;;;;;;;;;;5019911;28;20207;-67
2024/01/03 14:44:38;;;;;;;5.23;1.50;;;;;;;;;;5014663;28;20261;-67